Time;durP1;ratioP1;P1;durP2;ratioP2;P2;SDS_P1;SDS_P2;PMS_P1;PMS_P2;Temp;Humidity;BMP_temperature;BMP_pressure;BME280_temperature;BME280_humidity;BME280_pressure;Samples;Min_cycle;Max_cycle;Signal;HPM_P1;HPM_P2
2022/10/22 00:02:22;;;;;;;3.30;1.60;;;;;;;;;;4956588;28;20039;-82
2022/10/22 00:04:48;;;;;;;3.97;1.92;;;;;;;;;;4971709;28;20394;-82
2022/10/22 00:07:15;;;;;;;2.47;1.67;;;;;;;;;;4955908;28;20027;-82
2022/10/22 00:09:41;;;;;;;2.55;1.60;;;;;;;;;;4971233;28;20019;-82
2022/10/22 00:12:06;;;;;;;2.05;1.80;;;;;;;;;;4956676;28;20368;-82
2022/10/22 00:14:32;;;;;;;4.25;1.90;;;;;;;;;;4955073;28;20402;-82
2022/10/22 00:16:59;;;;;;;3.55;1.63;;;;;;;;;;4971129;28;20031;-82
2022/10/22 00:19:26;;;;;;;1.40;1.30;;;;;;;;;;4970845;28;20038;-82
2022/10/22 00:21:51;;;;;;;4.57;1.83;;;;;;;;;;4954891;29;20526;-82
2022/10/22 00:24:16;;;;;;;3.95;1.75;;;;;;;;;;4954939;28;20126;-82
2022/10/22 00:26:42;;;;;;;2.78;1.80;;;;;;;;;;4970938;28;20031;-81
2022/10/22 00:29:07;;;;;;;5.03;1.88;;;;;;;;;;4956276;28;20028;-82
2022/10/22 00:31:33;;;;;;;2.35;1.70;;;;;;;;;;4971018;28;20119;-82
2022/10/22 00:33:58;;;;;;;3.30;1.70;;;;;;;;;;4955999;28;20023;-81
2022/10/22 00:36:23;;;;;;;4.53;1.60;;;;;;;;;;4956511;28;20580;-82
2022/10/22 00:38:49;;;;;;;6.10;1.80;;;;;;;;;;4970633;28;20094;-82
2022/10/22 00:41:14;;;;;;;1.88;1.58;;;;;;;;;;4956191;28;20046;-82
2022/10/22 00:44:01;;;;;;;4.10;1.98;;;;;;;;;;4970691;28;20486;-82
2022/10/22 00:46:27;;;;;;;1.92;1.60;;;;;;;;;;4970735;28;20019;-82
2022/10/22 00:48:54;;;;;;;3.67;1.88;;;;;;;;;;4970866;28;20525;-82
2022/10/22 00:51:21;;;;;;;2.90;1.95;;;;;;;;;;4956035;28;20039;-83
2022/10/22 00:53:52;;;;;;;8.00;1.70;;;;;;;;;;4970731;28;20023;-83
2022/10/22 00:56:18;;;;;;;2.97;1.70;;;;;;;;;;4970629;28;20437;-82
2022/10/22 00:58:46;;;;;;;1.75;1.58;;;;;;;;;;4970356;28;20083;-82
2022/10/22 01:01:18;;;;;;;5.93;2.00;;;;;;;;;;4970781;28;20058;-82
2022/10/22 01:03:44;;;;;;;3.70;2.00;;;;;;;;;;4954124;28;20042;-82
2022/10/22 01:06:11;;;;;;;2.95;1.90;;;;;;;;;;4955814;28;20039;-82
2022/10/22 01:08:49;;;;;;;2.90;1.83;;;;;;;;;;4954442;29;20082;-83
2022/10/22 01:11:33;;;;;;;3.47;1.67;;;;;;;;;;4970383;28;20027;-83
2022/10/22 01:14:24;;;;;;;2.53;1.50;;;;;;;;;;4955813;28;20027;-82
2022/10/22 01:16:54;;;;;;;3.30;1.65;;;;;;;;;;4954671;28;20028;-82
2022/10/22 01:19:19;;;;;;;2.20;1.70;;;;;;;;;;4955685;28;20026;-82
2022/10/22 01:21:49;;;;;;;2.15;1.50;;;;;;;;;;4956861;28;20055;-83
2022/10/22 01:24:30;;;;;;;5.72;1.40;;;;;;;;;;4954429;28;20031;-82
2022/10/22 01:27:12;;;;;;;2.78;1.50;;;;;;;;;;4971214;28;20023;-83
2022/10/22 01:29:48;;;;;;;2.20;1.52;;;;;;;;;;4956302;28;20098;-83
2022/10/22 01:32:16;;;;;;;6.93;1.60;;;;;;;;;;4970576;28;20019;-83
2022/10/22 01:34:45;;;;;;;4.63;1.88;;;;;;;;;;4953995;28;20123;-83
2022/10/22 01:37:13;;;;;;;3.88;1.48;;;;;;;;;;4970089;28;20430;-83
2022/10/22 01:39:39;;;;;;;3.00;1.60;;;;;;;;;;4970015;28;20023;-83
2022/10/22 01:42:05;;;;;;;4.97;1.60;;;;;;;;;;4953993;28;20042;-82
2022/10/22 01:44:32;;;;;;;2.13;1.63;;;;;;;;;;4969985;28;20031;-81
2022/10/22 01:47:06;;;;;;;2.30;1.50;;;;;;;;;;4955612;28;20031;-81
2022/10/22 01:49:33;;;;;;;;;;;;;;;;;;4970767;28;20417;-81
2022/10/22 01:52:24;;;;;;;1.80;1.35;;;;;;;;;;4954957;29;20372;-81
2022/10/22 01:55:02;;;;;;;4.88;1.50;;;;;;;;;;4971355;28;20030;-81
2022/10/22 01:57:50;;;;;;;3.30;1.70;;;;;;;;;;4954979;28;20043;-82
2022/10/22 02:00:16;;;;;;;2.80;1.50;;;;;;;;;;4969603;28;20110;-82
2022/10/22 02:03:07;;;;;;;4.32;1.73;;;;;;;;;;4969909;28;20050;-81
2022/10/22 02:05:38;;;;;;;2.35;1.67;;;;;;;;;;4954883;29;20467;-82
2022/10/22 02:08:10;;;;;;;3.85;1.70;;;;;;;;;;4953687;29;20367;-82
2022/10/22 02:10:40;;;;;;;2.53;1.50;;;;;;;;;;4953948;29;20028;-82
2022/10/22 02:13:12;;;;;;;2.72;1.50;;;;;;;;;;4953676;28;20031;-82
2022/10/22 02:15:38;;;;;;;2.85;1.80;;;;;;;;;;4971513;28;20470;-82
2022/10/22 02:18:05;;;;;;;3.85;1.60;;;;;;;;;;4941283;29;20371;-82
2022/10/22 02:20:32;;;;;;;4.07;1.45;;;;;;;;;;4973493;28;20051;-82
2022/10/22 02:22:59;;;;;;;2.83;1.70;;;;;;;;;;4973969;28;20410;-82
2022/10/22 02:25:30;;;;;;;2.83;1.55;;;;;;;;;;4958433;28;20035;-82
2022/10/22 02:28:06;;;;;;;1.85;1.40;;;;;;;;;;4973580;28;20019;-83
2022/10/22 02:30:33;;;;;;;1.42;1.30;;;;;;;;;;4973670;28;20023;-83
2022/10/22 02:33:07;;;;;;;2.35;1.50;;;;;;;;;;4973616;28;20119;-83
2022/10/22 02:35:32;;;;;;;2.33;1.60;;;;;;;;;;4958684;28;20031;-83
2022/10/22 02:37:58;;;;;;;1.80;1.58;;;;;;;;;;4973494;28;20478;-83
2022/10/22 02:40:24;;;;;;;3.83;1.67;;;;;;;;;;4974066;28;20023;-83
2022/10/22 02:42:50;;;;;;;3.65;1.70;;;;;;;;;;4956991;29;20031;-83
2022/10/22 02:45:16;;;;;;;2.63;1.70;;;;;;;;;;4956917;28;20035;-83
2022/10/22 02:47:41;;;;;;;2.72;1.70;;;;;;;;;;4973288;28;20102;-83
2022/10/22 02:50:07;;;;;;;2.72;1.50;;;;;;;;;;4958370;28;20549;-82
2022/10/22 02:52:32;;;;;;;4.00;1.70;;;;;;;;;;4973216;28;20039;-83
2022/10/22 02:54:58;;;;;;;2.20;1.50;;;;;;;;;;4957913;28;20470;-83
2022/10/22 02:57:23;;;;;;;3.35;1.50;;;;;;;;;;4957770;28;20086;-82
2022/10/22 02:59:49;;;;;;;2.67;1.50;;;;;;;;;;4957105;29;20102;-83
2022/10/22 03:02:14;;;;;;;2.42;1.67;;;;;;;;;;4957935;28;20069;-83
2022/10/22 03:04:40;;;;;;;3.40;1.85;;;;;;;;;;4957678;28;20034;-82
2022/10/22 03:07:05;;;;;;;4.07;1.73;;;;;;;;;;4957765;28;20035;-82
2022/10/22 03:09:30;;;;;;;3.67;1.80;;;;;;;;;;4956574;28;20050;-82
2022/10/22 03:11:56;;;;;;;1.85;1.35;;;;;;;;;;4956442;28;20031;-83
2022/10/22 03:14:21;;;;;;;4.65;1.80;;;;;;;;;;4972750;28;20031;-83
2022/10/22 03:16:46;;;;;;;3.25;1.40;;;;;;;;;;4972662;28;20050;-83
2022/10/22 03:19:12;;;;;;;5.45;2.17;;;;;;;;;;4957635;28;20035;-82
2022/10/22 03:22:05;;;;;;;2.78;1.70;;;;;;;;;;4957711;28;20031;-82
2022/10/22 03:24:36;;;;;;;3.45;1.80;;;;;;;;;;4959078;28;20043;-82
2022/10/22 03:27:01;;;;;;;3.13;1.55;;;;;;;;;;4957440;28;20027;-83
2022/10/22 03:29:27;;;;;;;3.47;2.03;;;;;;;;;;4973218;28;20024;-83
2022/10/22 03:31:53;;;;;;;2.22;1.60;;;;;;;;;;4955932;29;20042;-83
2022/10/22 03:34:19;;;;;;;3.33;1.50;;;;;;;;;;4957372;28;20061;-82
2022/10/22 03:36:45;;;;;;;2.92;1.50;;;;;;;;;;4972204;28;20428;-82
2022/10/22 03:39:12;;;;;;;3.22;1.60;;;;;;;;;;4957141;28;20027;-82
2022/10/22 03:41:38;;;;;;;4.03;1.77;;;;;;;;;;4955650;29;20031;-82
2022/10/22 03:44:03;;;;;;;3.25;1.55;;;;;;;;;;4955647;28;20087;-83
2022/10/22 03:46:29;;;;;;;4.15;1.55;;;;;;;;;;4972359;28;20043;-82
2022/10/22 03:48:54;;;;;;;3.50;1.90;;;;;;;;;;4971852;28;20031;-83
2022/10/22 03:51:19;;;;;;;2.38;1.90;;;;;;;;;;4956984;28;20031;-82
2022/10/22 03:53:45;;;;;;;2.05;1.50;;;;;;;;;;4971671;28;20061;-82
2022/10/22 03:56:11;;;;;;;3.38;1.80;;;;;;;;;;4971660;28;20054;-82
2022/10/22 03:58:38;;;;;;;5.32;1.90;;;;;;;;;;4971481;28;20059;-82
2022/10/22 04:01:11;;;;;;;3.50;1.73;;;;;;;;;;4971543;28;20050;-82
2022/10/22 04:03:37;;;;;;;2.30;1.52;;;;;;;;;;4955486;29;20114;-83
2022/10/22 04:06:10;;;;;;;3.15;1.50;;;;;;;;;;4971783;28;20087;-83
2022/10/22 04:08:38;;;;;;;2.90;2.00;;;;;;;;;;4956822;28;20031;-82
2022/10/22 04:11:04;;;;;;;2.47;1.65;;;;;;;;;;4971478;28;20159;-83
2022/10/22 04:13:29;;;;;;;4.28;1.67;;;;;;;;;;4971853;28;20110;-82
2022/10/22 04:15:54;;;;;;;3.83;1.52;;;;;;;;;;4956425;28;20042;-82
2022/10/22 04:18:21;;;;;;;4.38;1.70;;;;;;;;;;4956396;28;20035;-82
2022/10/22 04:20:47;;;;;;;2.47;1.70;;;;;;;;;;4954807;28;20028;-82
2022/10/22 04:23:12;;;;;;;3.33;1.63;;;;;;;;;;4955106;29;20379;-82
2022/10/22 04:25:38;;;;;;;2.70;1.75;;;;;;;;;;4971436;28;20443;-82
2022/10/22 04:28:07;;;;;;;4.03;1.60;;;;;;;;;;4971211;28;20482;-82
2022/10/22 04:30:34;;;;;;;4.28;1.60;;;;;;;;;;4971112;28;20026;-81
2022/10/22 04:32:59;;;;;;;3.47;1.60;;;;;;;;;;4956046;28;20098;-82
2022/10/22 04:35:24;;;;;;;3.17;1.95;;;;;;;;;;4956075;28;20474;-82
2022/10/22 04:37:50;;;;;;;3.40;1.50;;;;;;;;;;4955736;28;20051;-82
2022/10/22 04:40:15;;;;;;;2.88;1.60;;;;;;;;;;4957319;28;20114;-82
2022/10/22 04:42:40;;;;;;;3.40;1.88;;;;;;;;;;4970740;28;20385;-81
2022/10/22 04:45:06;;;;;;;4.60;2.13;;;;;;;;;;4955943;28;20039;-82
2022/10/22 04:47:32;;;;;;;3.42;2.03;;;;;;;;;;4971522;28;20039;-81
2022/10/22 04:49:57;;;;;;;3.58;1.65;;;;;;;;;;4957349;28;20468;-82
2022/10/22 04:52:22;;;;;;;2.05;1.40;;;;;;;;;;4958457;28;20035;-82
2022/10/22 04:54:48;;;;;;;4.45;1.88;;;;;;;;;;4956738;29;20027;-82
2022/10/22 04:57:13;;;;;;;2.53;1.70;;;;;;;;;;4957602;28;20482;-82
2022/10/22 04:59:39;;;;;;;3.38;1.63;;;;;;;;;;4956789;28;20036;-82
2022/10/22 05:02:04;;;;;;;2.38;1.63;;;;;;;;;;4956398;28;20038;-82
2022/10/22 05:04:30;;;;;;;3.15;1.70;;;;;;;;;;4971296;28;20031;-82
2022/10/22 05:06:55;;;;;;;2.72;1.58;;;;;;;;;;4955463;29;20482;-81
2022/10/22 05:09:20;;;;;;;2.58;1.60;;;;;;;;;;4972612;28;20114;-81
2022/10/22 05:11:48;;;;;;;8.50;2.08;;;;;;;;;;4974295;28;20466;-81
2022/10/22 05:14:23;;;;;;;3.38;1.73;;;;;;;;;;4972457;28;20027;-82
2022/10/22 05:16:50;;;;;;;5.90;2.03;;;;;;;;;;4957626;28;20027;-83
2022/10/22 05:19:18;;;;;;;4.40;1.80;;;;;;;;;;4970653;28;20031;-83
2022/10/22 05:21:43;;;;;;;5.20;1.85;;;;;;;;;;4970853;28;20034;-82
2022/10/22 05:24:09;;;;;;;3.97;1.90;;;;;;;;;;4956402;28;20035;-81
2022/10/22 05:26:34;;;;;;;3.40;1.77;;;;;;;;;;4957688;28;20031;-83
2022/10/22 05:29:00;;;;;;;4.70;1.65;;;;;;;;;;4957343;28;20489;-83
2022/10/22 05:31:27;;;;;;;5.80;2.40;;;;;;;;;;4973204;28;20046;-83
2022/10/22 05:33:53;;;;;;;4.55;1.75;;;;;;;;;;4957249;28;20027;-83
2022/10/22 05:36:20;;;;;;;4.97;1.83;;;;;;;;;;4957249;28;20119;-83
2022/10/22 05:38:46;;;;;;;6.13;2.28;;;;;;;;;;4971749;28;20031;-83
2022/10/22 05:41:22;;;;;;;5.75;2.38;;;;;;;;;;4971502;28;20082;-82
2022/10/22 05:43:47;;;;;;;4.47;2.10;;;;;;;;;;4955340;29;20481;-81
2022/10/22 05:46:15;;;;;;;4.85;2.33;;;;;;;;;;4955432;28;20134;-82
2022/10/22 05:48:40;;;;;;;2.78;1.90;;;;;;;;;;4956976;28;20102;-83
2022/10/22 05:51:09;;;;;;;4.85;2.05;;;;;;;;;;4957866;29;20478;-83
2022/10/22 05:53:35;;;;;;;6.35;2.20;;;;;;;;;;4974327;28;20039;-84
2022/10/22 05:56:03;;;;;;;7.00;2.38;;;;;;;;;;4959940;28;20026;-84
2022/10/22 05:58:29;;;;;;;3.85;1.85;;;;;;;;;;4960876;28;20059;-83
2022/10/22 06:01:00;;;;;;;6.57;2.10;;;;;;;;;;4977707;28;20099;-82
2022/10/22 06:03:25;;;;;;;6.20;2.28;;;;;;;;;;4962462;28;20469;-83
2022/10/22 06:05:51;;;;;;;9.50;2.70;;;;;;;;;;4976068;28;20118;-81
2022/10/22 06:08:16;;;;;;;14.20;3.55;;;;;;;;;;4959749;28;20062;-82
2022/10/22 06:10:43;;;;;;;10.60;2.80;;;;;;;;;;4957777;29;20736;-80
2022/10/22 06:13:08;;;;;;;11.13;2.88;;;;;;;;;;4973607;28;20067;-81
2022/10/22 06:15:34;;;;;;;12.68;3.47;;;;;;;;;;4973714;28;20035;-80
2022/10/22 06:17:59;;;;;;;14.55;3.53;;;;;;;;;;4956601;28;20126;-82
2022/10/22 06:20:25;;;;;;;13.50;3.17;;;;;;;;;;4956635;28;20046;-80
2022/10/22 06:22:50;;;;;;;10.77;2.95;;;;;;;;;;4959266;28;20028;-80
2022/10/22 06:25:16;;;;;;;12.07;3.25;;;;;;;;;;4957199;29;20039;-80
2022/10/22 06:27:41;;;;;;;11.13;2.67;;;;;;;;;;4958442;28;20496;-80
2022/10/22 06:30:07;;;;;;;6.07;2.75;;;;;;;;;;4958418;28;20031;-81
2022/10/22 06:32:32;;;;;;;9.15;2.55;;;;;;;;;;4958534;28;20126;-80
2022/10/22 06:34:58;;;;;;;11.77;3.00;;;;;;;;;;4958229;28;20066;-80
2022/10/22 06:37:23;;;;;;;11.32;2.55;;;;;;;;;;4959234;28;20037;-80
2022/10/22 06:39:48;;;;;;;12.48;2.85;;;;;;;;;;4957150;29;20138;-81
2022/10/22 06:42:14;;;;;;;9.68;2.65;;;;;;;;;;4957369;28;20077;-79
2022/10/22 06:44:39;;;;;;;5.88;2.53;;;;;;;;;;4972759;28;20039;-81
2022/10/22 06:47:04;;;;;;;9.73;2.55;;;;;;;;;;4973360;28;20087;-80
2022/10/22 06:49:30;;;;;;;8.95;2.72;;;;;;;;;;4957425;28;20414;-80
2022/10/22 06:51:55;;;;;;;7.40;2.35;;;;;;;;;;4958856;28;20036;-80
2022/10/22 06:54:21;;;;;;;12.65;3.03;;;;;;;;;;4963091;28;20031;-79
2022/10/22 06:56:48;;;;;;;9.98;3.20;;;;;;;;;;4959118;28;20019;-81
2022/10/22 06:59:13;;;;;;;9.73;2.95;;;;;;;;;;4973223;28;20050;-81
2022/10/22 07:01:39;;;;;;;7.75;3.10;;;;;;;;;;4974029;28;20043;-81
2022/10/22 07:04:05;;;;;;;13.63;3.17;;;;;;;;;;4977032;28;20031;-81
2022/10/22 07:06:31;;;;;;;11.43;3.08;;;;;;;;;;4967313;28;20042;-80
2022/10/22 07:08:57;;;;;;;13.10;3.35;;;;;;;;;;4976663;28;20023;-82
2022/10/22 07:11:37;;;;;;;10.57;3.10;;;;;;;;;;4975112;28;20035;-80
2022/10/22 07:14:02;;;;;;;8.38;2.92;;;;;;;;;;4960166;28;20020;-81
2022/10/22 07:16:28;;;;;;;8.40;3.40;;;;;;;;;;4974366;28;20031;-82
2022/10/22 07:18:53;;;;;;;10.05;2.83;;;;;;;;;;4957235;28;20035;-83
2022/10/22 07:21:20;;;;;;;12.95;3.00;;;;;;;;;;4957459;28;20423;-82
2022/10/22 07:23:46;;;;;;;33.47;3.10;;;;;;;;;;4974806;28;20031;-84
2022/10/22 07:26:13;;;;;;;7.85;2.70;;;;;;;;;;4973879;28;20099;-82
2022/10/22 07:28:39;;;;;;;9.63;2.85;;;;;;;;;;4973161;28;20466;-83
2022/10/22 07:31:10;;;;;;;8.25;2.55;;;;;;;;;;4972560;28;20027;-83
2022/10/22 07:33:36;;;;;;;10.98;3.00;;;;;;;;;;4972704;28;20027;-83
2022/10/22 07:36:04;;;;;;;10.60;2.97;;;;;;;;;;4972619;28;20063;-82
2022/10/22 07:38:30;;;;;;;6.30;2.47;;;;;;;;;;4971589;28;20031;-82
2022/10/22 07:40:56;;;;;;;10.77;2.97;;;;;;;;;;4955980;29;20067;-83
2022/10/22 07:43:22;;;;;;;11.52;2.58;;;;;;;;;;4971696;28;20059;-82
2022/10/22 07:45:47;;;;;;;8.48;2.60;;;;;;;;;;4972025;28;20467;-83
2022/10/22 07:48:13;;;;;;;11.95;2.80;;;;;;;;;;4957395;28;20027;-82
2022/10/22 07:50:38;;;;;;;12.80;2.72;;;;;;;;;;4957097;28;20050;-82
2022/10/22 07:53:03;;;;;;;7.25;2.42;;;;;;;;;;4956685;28;20035;-82
2022/10/22 07:55:29;;;;;;;10.77;2.67;;;;;;;;;;4971657;28;20395;-82
2022/10/22 07:57:54;;;;;;;5.18;2.22;;;;;;;;;;4954757;28;20066;-82
2022/10/22 08:00:20;;;;;;;7.68;2.67;;;;;;;;;;4956560;28;20477;-82
2022/10/22 08:02:45;;;;;;;6.43;2.67;;;;;;;;;;4971136;28;20577;-82
2022/10/22 08:05:12;;;;;;;8.82;2.60;;;;;;;;;;4971890;28;20028;-82
2022/10/22 08:07:38;;;;;;;4.78;2.40;;;;;;;;;;4973298;28;20118;-82
2022/10/22 08:10:04;;;;;;;7.63;2.22;;;;;;;;;;4971489;28;20027;-82
2022/10/22 08:12:29;;;;;;;8.45;2.78;;;;;;;;;;4956090;28;20094;-82
2022/10/22 08:14:54;;;;;;;6.72;3.03;;;;;;;;;;4957358;28;20039;-81
2022/10/22 08:17:20;;;;;;;5.22;2.10;;;;;;;;;;4956294;28;20053;-81
2022/10/22 08:19:45;;;;;;;9.73;2.85;;;;;;;;;;4956370;28;20039;-82
2022/10/22 08:22:10;;;;;;;8.57;2.60;;;;;;;;;;4956910;28;20039;-83
2022/10/22 08:24:36;;;;;;;5.40;2.30;;;;;;;;;;4971760;28;20594;-83
2022/10/22 08:27:01;;;;;;;9.02;2.20;;;;;;;;;;4955657;28;20366;-83
2022/10/22 08:29:26;;;;;;;4.53;1.85;;;;;;;;;;4971169;28;20107;-83
2022/10/22 08:31:53;;;;;;;11.10;2.40;;;;;;;;;;4955788;28;20386;-82
2022/10/22 08:34:19;;;;;;;20.77;2.50;;;;;;;;;;4955522;28;20031;-82
2022/10/22 08:36:44;;;;;;;3.40;1.80;;;;;;;;;;4955537;28;20390;-83
2022/10/22 08:39:10;;;;;;;7.03;2.47;;;;;;;;;;4970345;28;20035;-82
2022/10/22 08:41:42;;;;;;;8.80;2.40;;;;;;;;;;4970064;28;20069;-82
2022/10/22 08:44:42;;;;;;;3.25;1.63;;;;;;;;;;4970099;28;20034;-82
2022/10/22 08:47:24;;;;;;;6.75;2.00;;;;;;;;;;4955339;28;20046;-83
2022/10/22 08:49:49;;;;;;;3.85;1.88;;;;;;;;;;4954020;29;20382;-82
2022/10/22 08:52:17;;;;;;;5.80;2.10;;;;;;;;;;4970027;28;20094;-82
2022/10/22 08:54:46;;;;;;;5.70;2.08;;;;;;;;;;4970031;28;20027;-83
2022/10/22 08:57:23;;;;;;;7.10;2.30;;;;;;;;;;4953386;28;20030;-82
2022/10/22 09:00:10;;;;;;;7.93;2.50;;;;;;;;;;4953493;28;20027;-83
2022/10/22 09:02:42;;;;;;;3.47;1.90;;;;;;;;;;4953874;28;20086;-84
2022/10/22 09:05:33;;;;;;;4.40;1.88;;;;;;;;;;4954999;28;20030;-82
2022/10/22 09:07:59;;;;;;;5.93;1.73;;;;;;;;;;4953813;28;20031;-82
2022/10/22 09:10:29;;;;;;;5.75;1.83;;;;;;;;;;4969783;28;20023;-83
2022/10/22 09:12:55;;;;;;;6.57;1.77;;;;;;;;;;4969687;28;20394;-82
2022/10/22 09:15:20;;;;;;;9.55;2.00;;;;;;;;;;4953788;28;20027;-82
2022/10/22 09:18:09;;;;;;;4.15;1.73;;;;;;;;;;4954043;28;20397;-82
2022/10/22 09:20:47;;;;;;;9.65;1.98;;;;;;;;;;4970404;28;20091;-81
2022/10/22 09:23:32;;;;;;;8.05;2.22;;;;;;;;;;4970124;28;20046;-81
2022/10/22 09:25:59;;;;;;;6.43;1.88;;;;;;;;;;4971233;28;20063;-81
2022/10/22 09:28:24;;;;;;;3.63;1.73;;;;;;;;;;4970183;28;20029;-81
2022/10/22 09:30:50;;;;;;;5.60;2.22;;;;;;;;;;4953802;29;20027;-81
2022/10/22 09:33:26;;;;;;;4.97;2.03;;;;;;;;;;4955539;28;20055;-82
2022/10/22 09:35:58;;;;;;;9.20;1.92;;;;;;;;;;4954376;29;20042;-81
2022/10/22 09:38:31;;;;;;;5.82;1.80;;;;;;;;;;4955098;28;20429;-82
2022/10/22 09:40:58;;;;;;;5.57;2.00;;;;;;;;;;4955233;29;20090;-82
2022/10/22 09:43:24;;;;;;;7.55;1.95;;;;;;;;;;4955306;29;20038;-81
2022/10/22 09:46:01;;;;;;;6.72;2.45;;;;;;;;;;4971596;28;20031;-81
2022/10/22 09:48:35;;;;;;;3.60;1.77;;;;;;;;;;4955168;29;20035;-80
2022/10/22 09:51:23;;;;;;;5.22;1.85;;;;;;;;;;4954465;28;20194;-81
2022/10/22 09:53:56;;;;;;;7.30;1.80;;;;;;;;;;4954022;28;20027;-81
2022/10/22 09:56:34;;;;;;;6.45;2.08;;;;;;;;;;4955703;28;20035;-80
2022/10/22 09:59:00;;;;;;;4.28;1.98;;;;;;;;;;4939011;28;20074;-81
2022/10/22 10:01:32;;;;;;;4.55;1.58;;;;;;;;;;4954945;28;20058;-81
2022/10/22 10:04:03;;;;;;;5.10;1.83;;;;;;;;;;4970958;28;20376;-81
2022/10/22 10:06:31;;;;;;;5.80;1.60;;;;;;;;;;4954965;28;20027;-82
2022/10/22 10:09:00;;;;;;;7.93;1.77;;;;;;;;;;4970713;28;20030;-83
2022/10/22 10:11:28;;;;;;;5.25;1.60;;;;;;;;;;4954656;29;20079;-82
2022/10/22 10:14:00;;;;;;;4.78;1.80;;;;;;;;;;4954978;29;20035;-83
2022/10/22 10:16:26;;;;;;;5.63;1.95;;;;;;;;;;4970234;28;20027;-84
2022/10/22 10:19:23;;;;;;;8.27;2.20;;;;;;;;;;4955249;28;20031;-84
2022/10/22 10:22:02;;;;;;;6.18;2.13;;;;;;;;;;4969975;28;20047;-82
2022/10/22 10:24:40;;;;;;;7.25;1.95;;;;;;;;;;4954656;28;20055;-81
2022/10/22 10:27:30;;;;;;;9.85;2.08;;;;;;;;;;4952324;28;20375;-80
2022/10/22 10:30:09;;;;;;;10.65;2.13;;;;;;;;;;4969594;28;20458;-78
2022/10/22 10:33:11;;;;;;;13.23;2.50;;;;;;;;;;4969200;28;20394;-79
2022/10/22 10:35:55;;;;;;;11.48;2.05;;;;;;;;;;4953286;28;20059;-78
2022/10/22 10:38:48;;;;;;;11.63;2.42;;;;;;;;;;4957692;28;20027;-79
2022/10/22 10:41:26;;;;;;;7.57;2.40;;;;;;;;;;4972945;28;20463;-78
2022/10/22 10:44:00;;;;;;;10.55;2.13;;;;;;;;;;4973407;28;20122;-78
2022/10/22 10:46:34;;;;;;;9.55;2.20;;;;;;;;;;4973835;28;20023;-78
2022/10/22 10:49:24;;;;;;;8.40;2.25;;;;;;;;;;4973948;28;20111;-78
2022/10/22 10:52:05;;;;;;;14.20;2.22;;;;;;;;;;4971902;28;20466;-79
2022/10/22 10:54:45;;;;;;;7.82;2.03;;;;;;;;;;4972807;28;20114;-78
2022/10/22 10:57:16;;;;;;;12.30;2.55;;;;;;;;;;4971875;28;20027;-79
2022/10/22 10:59:44;;;;;;;9.15;2.35;;;;;;;;;;4957584;28;20027;-81
2022/10/22 11:02:12;;;;;;;8.18;1.60;;;;;;;;;;4971941;28;20553;-79
2022/10/22 11:04:45;;;;;;;6.07;2.00;;;;;;;;;;4957147;28;20451;-79
2022/10/22 11:07:15;;;;;;;10.77;2.22;;;;;;;;;;4971660;28;20031;-79
2022/10/22 11:09:53;;;;;;;8.80;2.00;;;;;;;;;;4971617;28;20086;-79
2022/10/22 11:12:41;;;;;;;10.63;2.00;;;;;;;;;;4956489;29;20090;-79
2022/10/22 11:15:30;;;;;;;10.25;2.30;;;;;;;;;;4972065;28;20038;-80
2022/10/22 11:18:02;;;;;;;9.25;1.95;;;;;;;;;;4971471;28;20023;-79
2022/10/22 11:20:37;;;;;;;10.13;1.92;;;;;;;;;;4971499;28;20103;-79
2022/10/22 11:23:12;;;;;;;10.70;2.25;;;;;;;;;;4971612;28;20046;-79
2022/10/22 11:25:43;;;;;;;10.48;2.15;;;;;;;;;;4956984;28;20089;-79
2022/10/22 11:28:15;;;;;;;7.70;1.90;;;;;;;;;;4956082;28;20059;-80
2022/10/22 11:30:42;;;;;;;14.55;2.20;;;;;;;;;;4956025;28;20432;-80
2022/10/22 11:33:15;;;;;;;7.00;1.92;;;;;;;;;;4970902;28;20063;-80
2022/10/22 11:35:42;;;;;;;7.45;2.03;;;;;;;;;;4970938;28;20070;-80
2022/10/22 11:38:12;;;;;;;10.25;1.95;;;;;;;;;;4955273;29;20046;-80
2022/10/22 11:40:44;;;;;;;20.20;2.00;;;;;;;;;;4971338;28;20023;-81
2022/10/22 11:43:53;;;;;;;9.48;2.70;;;;;;;;;;4971085;28;20027;-80
2022/10/22 11:46:19;;;;;;;5.25;1.80;;;;;;;;;;4960030;28;20572;-79
2022/10/22 11:49:00;;;;;;;9.45;2.30;;;;;;;;;;4954626;28;20209;-78
2022/10/22 11:51:35;;;;;;;11.05;1.90;;;;;;;;;;4954782;28;20588;-79
2022/10/22 11:54:30;;;;;;;13.90;1.70;;;;;;;;;;4956452;28;20486;-79
2022/10/22 11:57:13;;;;;;;;;;;;;;;;;;4957108;28;20047;-80
2022/10/22 11:59:46;;;;;;;5.05;1.88;;;;;;;;;;4954741;28;20385;-79
2022/10/22 12:02:27;;;;;;;7.18;2.00;;;;;;;;;;4971146;28;20082;-78
2022/10/22 12:04:54;;;;;;;15.63;2.50;;;;;;;;;;4954408;28;20396;-79
2022/10/22 12:07:32;;;;;;;7.53;2.10;;;;;;;;;;4970657;28;20100;-79
2022/10/22 12:09:58;;;;;;;6.25;1.77;;;;;;;;;;4970737;28;20039;-79
2022/10/22 12:12:23;;;;;;;9.27;2.08;;;;;;;;;;4954296;28;20031;-81
2022/10/22 12:14:56;;;;;;;8.35;2.13;;;;;;;;;;4970334;28;20043;-79
2022/10/22 12:17:23;;;;;;;5.70;1.92;;;;;;;;;;4970235;28;20038;-79
2022/10/22 12:20:11;;;;;;;5.75;1.85;;;;;;;;;;4954976;28;20036;-80
2022/10/22 12:22:37;;;;;;;8.75;1.70;;;;;;;;;;4959256;28;20055;-79
2022/10/22 12:25:15;;;;;;;7.20;1.67;;;;;;;;;;4969956;28;20042;-80
2022/10/22 12:27:40;;;;;;;4.82;1.88;;;;;;;;;;4970037;28;20109;-79
2022/10/22 12:30:18;;;;;;;7.63;2.00;;;;;;;;;;4955074;28;20121;-79
2022/10/22 12:32:44;;;;;;;7.03;2.03;;;;;;;;;;4970094;28;20081;-80
2022/10/22 12:35:18;;;;;;;8.25;1.80;;;;;;;;;;4970141;28;20106;-80
2022/10/22 12:37:44;;;;;;;8.10;1.90;;;;;;;;;;4954332;29;20028;-79
2022/10/22 12:40:22;;;;;;;8.80;1.90;;;;;;;;;;4970705;28;20027;-80
2022/10/22 12:42:54;;;;;;;7.30;2.10;;;;;;;;;;4954645;28;20435;-80
2022/10/22 12:45:20;;;;;;;8.85;2.10;;;;;;;;;;4969243;28;20058;-80
2022/10/22 12:47:50;;;;;;;7.82;2.00;;;;;;;;;;4969721;28;20113;-80
2022/10/22 12:50:22;;;;;;;6.47;1.60;;;;;;;;;;4969550;28;20046;-79
2022/10/22 12:52:48;;;;;;;5.20;1.85;;;;;;;;;;4969948;28;20035;-80
2022/10/22 12:55:17;;;;;;;6.88;1.60;;;;;;;;;;4969989;28;20038;-80
2022/10/22 12:57:45;;;;;;;8.32;1.92;;;;;;;;;;4969203;28;20055;-81
2022/10/22 13:00:23;;;;;;;6.00;1.88;;;;;;;;;;4954490;28;20043;-82
2022/10/22 13:02:49;;;;;;;7.15;1.90;;;;;;;;;;4937647;28;20045;-82
2022/10/22 13:05:26;;;;;;;8.20;1.77;;;;;;;;;;4969362;28;20449;-81
2022/10/22 13:08:03;;;;;;;7.18;1.60;;;;;;;;;;4968909;28;20031;-82
2022/10/22 13:10:33;;;;;;;5.53;1.80;;;;;;;;;;4969399;28;20381;-80
2022/10/22 13:12:58;;;;;;;6.85;1.60;;;;;;;;;;4969134;28;20497;-80
2022/10/22 13:15:26;;;;;;;7.10;1.90;;;;;;;;;;4954308;28;20031;-80
2022/10/22 13:18:21;;;;;;;7.88;1.92;;;;;;;;;;4954262;28;20103;-80
2022/10/22 13:20:56;;;;;;;;;;;;;;;;;;4954259;28;20035;-79
2022/10/22 13:23:24;;;;;;;5.50;1.60;;;;;;;;;;4936826;29;20336;-80
2022/10/22 13:26:03;;;;;;;6.03;1.67;;;;;;;;;;4968792;28;20077;-80
2022/10/22 13:28:32;;;;;;;6.20;2.05;;;;;;;;;;4968927;28;20027;-80
2022/10/22 13:31:08;;;;;;;10.18;2.50;;;;;;;;;;4969702;28;20031;-80
2022/10/22 13:33:37;;;;;;;5.88;1.70;;;;;;;;;;4969341;28;20023;-79
2022/10/22 13:36:03;;;;;;;7.55;2.10;;;;;;;;;;4969228;28;20027;-83
2022/10/22 13:38:29;;;;;;;11.60;1.85;;;;;;;;;;4973960;28;20035;-81
2022/10/22 13:40:55;;;;;;;8.90;1.80;;;;;;;;;;4957414;28;20113;-81
2022/10/22 13:43:20;;;;;;;7.57;1.90;;;;;;;;;;4972210;28;20082;-81
2022/10/22 13:45:47;;;;;;;11.85;2.13;;;;;;;;;;4956318;28;20050;-81
2022/10/22 13:48:14;;;;;;;7.20;2.22;;;;;;;;;;4958338;28;20023;-80
2022/10/22 13:50:42;;;;;;;8.00;1.83;;;;;;;;;;4974966;28;20031;-83
2022/10/22 13:53:17;;;;;;;11.75;2.30;;;;;;;;;;4956060;28;20091;-82
2022/10/22 13:55:46;;;;;;;9.10;1.85;;;;;;;;;;4972068;28;20082;-82
2022/10/22 13:58:16;;;;;;;8.75;2.00;;;;;;;;;;4955006;28;20451;-82
2022/10/22 14:00:43;;;;;;;10.07;2.10;;;;;;;;;;4973868;28;20059;-82
2022/10/22 14:03:10;;;;;;;4.05;1.63;;;;;;;;;;4974227;28;20463;-81
2022/10/22 14:05:36;;;;;;;10.27;2.08;;;;;;;;;;4953924;28;20114;-82
2022/10/22 14:08:02;;;;;;;10.68;1.70;;;;;;;;;;4955481;28;20123;-82
2022/10/22 14:10:27;;;;;;;6.43;1.92;;;;;;;;;;4954972;28;20478;-81
2022/10/22 14:12:53;;;;;;;8.98;2.20;;;;;;;;;;4961226;28;20383;-80
2022/10/22 14:15:21;;;;;;;5.13;1.80;;;;;;;;;;4959419;28;20094;-81
2022/10/22 14:17:52;;;;;;;11.38;2.63;;;;;;;;;;4973676;28;20023;-81
2022/10/22 14:20:20;;;;;;;10.27;2.47;;;;;;;;;;4960507;28;20027;-81
2022/10/22 14:22:46;;;;;;;9.35;2.03;;;;;;;;;;4975021;28;20134;-81
2022/10/22 14:25:18;;;;;;;15.65;2.33;;;;;;;;;;4974329;28;20094;-82
2022/10/22 14:27:43;;;;;;;6.63;2.10;;;;;;;;;;4958569;28;20118;-82
2022/10/22 14:30:13;;;;;;;7.50;2.10;;;;;;;;;;4975370;28;20110;-82
2022/10/22 14:32:38;;;;;;;13.48;2.28;;;;;;;;;;4961504;29;20035;-82
2022/10/22 14:35:04;;;;;;;7.78;2.17;;;;;;;;;;4958521;28;20562;-82
2022/10/22 14:37:29;;;;;;;8.75;2.13;;;;;;;;;;4958771;28;20027;-82
2022/10/22 14:40:00;;;;;;;7.95;2.22;;;;;;;;;;4974556;28;20454;-82
2022/10/22 14:42:26;;;;;;;7.22;2.13;;;;;;;;;;4959896;28;20098;-82
2022/10/22 14:44:52;;;;;;;7.82;2.00;;;;;;;;;;4976381;28;20045;-82
2022/10/22 14:47:17;;;;;;;7.82;2.17;;;;;;;;;;4960785;28;20066;-82
2022/10/22 14:49:42;;;;;;;9.98;3.67;;;;;;;;;;4960451;28;20042;-82
2022/10/22 14:52:08;;;;;;;10.43;2.10;;;;;;;;;;4961927;28;20035;-82
2022/10/22 14:54:34;;;;;;;9.10;2.00;;;;;;;;;;4961373;28;20038;-82
2022/10/22 14:57:03;;;;;;;6.38;1.95;;;;;;;;;;4959069;29;20035;-81